sensor_id;sensor_type;location;lat;lon;timestamp;P1;durP1;ratioP1;P2;durP2;ratioP2
67500;SDS011;54349;52.528;19.760;2023-02-24T00:02:01;17.80;;;10.10;;
67500;SDS011;54349;52.528;19.760;2023-02-24T00:04:34;16.90;;;10.40;;
67500;SDS011;54349;52.528;19.760;2023-02-24T00:07:10;16.00;;;10.40;;
67500;SDS011;54349;52.528;19.760;2023-02-24T00:09:39;16.40;;;9.70;;
67500;SDS011;54349;52.528;19.760;2023-02-24T00:12:10;17.60;;;10.40;;
67500;SDS011;54349;52.528;19.760;2023-02-24T00:14:43;16.10;;;10.10;;
67500;SDS011;54349;52.528;19.760;2023-02-24T00:17:12;17.60;;;10.60;;
67500;SDS011;54349;52.528;19.760;2023-02-24T00:19:41;17.90;;;10.10;;
67500;SDS011;54349;52.528;19.760;2023-02-24T00:22:10;16.20;;;9.70;;
67500;SDS011;54349;52.528;19.760;2023-02-24T00:24:38;19.40;;;10.50;;
67500;SDS011;54349;52.528;19.760;2023-02-24T00:27:06;17.10;;;10.20;;
67500;SDS011;54349;52.528;19.760;2023-02-24T00:29:35;17.40;;;10.40;;
67500;SDS011;54349;52.528;19.760;2023-02-24T00:32:09;19.40;;;10.00;;
67500;SDS011;54349;52.528;19.760;2023-02-24T00:34:40;16.60;;;10.30;;
67500;SDS011;54349;52.528;19.760;2023-02-24T00:37:10;19.00;;;10.70;;
67500;SDS011;54349;52.528;19.760;2023-02-24T00:39:39;16.90;;;10.00;;
67500;SDS011;54349;52.528;19.760;2023-02-24T00:42:10;20.30;;;11.00;;
67500;SDS011;54349;52.528;19.760;2023-02-24T00:44:40;17.90;;;10.30;;
67500;SDS011;54349;52.528;19.760;2023-02-24T00:47:15;18.60;;;10.60;;
67500;SDS011;54349;52.528;19.760;2023-02-24T00:49:44;16.50;;;10.70;;
67500;SDS011;54349;52.528;19.760;2023-02-24T00:52:16;19.20;;;10.80;;
67500;SDS011;54349;52.528;19.760;2023-02-24T00:54:47;17.50;;;10.00;;
67500;SDS011;54349;52.528;19.760;2023-02-24T00:57:16;17.90;;;10.80;;
67500;SDS011;54349;52.528;19.760;2023-02-24T00:59:47;18.00;;;10.40;;
67500;SDS011;54349;52.528;19.760;2023-02-24T01:02:18;16.00;;;10.50;;
67500;SDS011;54349;52.528;19.760;2023-02-24T01:04:47;19.10;;;11.00;;
67500;SDS011;54349;52.528;19.760;2023-02-24T01:07:17;16.60;;;10.70;;
67500;SDS011;54349;52.528;19.760;2023-02-24T01:09:49;16.50;;;10.50;;
67500;SDS011;54349;52.528;19.760;2023-02-24T01:12:17;18.00;;;11.40;;
67500;SDS011;54349;52.528;19.760;2023-02-24T01:14:51;15.80;;;9.60;;
67500;SDS011;54349;52.528;19.760;2023-02-24T01:17:20;18.10;;;10.60;;
67500;SDS011;54349;52.528;19.760;2023-02-24T01:19:49;16.80;;;10.00;;
67500;SDS011;54349;52.528;19.760;2023-02-24T01:22:19;17.30;;;9.70;;
67500;SDS011;54349;52.528;19.760;2023-02-24T01:24:47;17.20;;;9.80;;
67500;SDS011;54349;52.528;19.760;2023-02-24T01:27:17;17.30;;;10.50;;
67500;SDS011;54349;52.528;19.760;2023-02-24T01:29:47;17.40;;;10.10;;
67500;SDS011;54349;52.528;19.760;2023-02-24T01:32:18;17.90;;;10.60;;
67500;SDS011;54349;52.528;19.760;2023-02-24T01:34:51;15.90;;;10.10;;
67500;SDS011;54349;52.528;19.760;2023-02-24T01:37:20;19.40;;;10.40;;
67500;SDS011;54349;52.528;19.760;2023-02-24T01:39:49;16.90;;;10.10;;
67500;SDS011;54349;52.528;19.760;2023-02-24T01:42:19;18.10;;;10.60;;
67500;SDS011;54349;52.528;19.760;2023-02-24T01:47:19;17.10;;;10.10;;
67500;SDS011;54349;52.528;19.760;2023-02-24T01:49:52;18.10;;;11.40;;
67500;SDS011;54349;52.528;19.760;2023-02-24T01:52:29;16.50;;;10.50;;
67500;SDS011;54349;52.528;19.760;2023-02-24T01:55:09;20.10;;;11.30;;
67500;SDS011;54349;52.528;19.760;2023-02-24T01:57:41;18.30;;;10.20;;
67500;SDS011;54349;52.528;19.760;2023-02-24T02:00:11;15.40;;;9.90;;
67500;SDS011;54349;52.528;19.760;2023-02-24T02:03:05;18.50;;;10.80;;
67500;SDS011;54349;52.528;19.760;2023-02-24T02:05:39;17.60;;;10.60;;
67500;SDS011;54349;52.528;19.760;2023-02-24T02:08:09;16.10;;;10.20;;
67500;SDS011;54349;52.528;19.760;2023-02-24T02:10:40;16.60;;;10.30;;
67500;SDS011;54349;52.528;19.760;2023-02-24T02:13:13;16.40;;;10.70;;
67500;SDS011;54349;52.528;19.760;2023-02-24T02:15:58;15.40;;;10.20;;
67500;SDS011;54349;52.528;19.760;2023-02-24T02:25:19;16.90;;;10.30;;
67500;SDS011;54349;52.528;19.760;2023-02-24T02:31:14;18.80;;;10.40;;
67500;SDS011;54349;52.528;19.760;2023-02-24T02:34:05;18.50;;;10.50;;
67500;SDS011;54349;52.528;19.760;2023-02-24T02:36:50;17.50;;;10.60;;
67500;SDS011;54349;52.528;19.760;2023-02-24T02:45:22;18.30;;;10.70;;
67500;SDS011;54349;52.528;19.760;2023-02-24T02:48:03;17.10;;;10.60;;
67500;SDS011;54349;52.528;19.760;2023-02-24T02:50:51;18.70;;;11.00;;
67500;SDS011;54349;52.528;19.760;2023-02-24T02:53:48;17.80;;;10.70;;
67500;SDS011;54349;52.528;19.760;2023-02-24T02:59:36;19.30;;;10.90;;
67500;SDS011;54349;52.528;19.760;2023-02-24T03:02:11;18.90;;;11.20;;
67500;SDS011;54349;52.528;19.760;2023-02-24T03:04:49;16.80;;;10.10;;
67500;SDS011;54349;52.528;19.760;2023-02-24T03:07:22;18.20;;;10.70;;
67500;SDS011;54349;52.528;19.760;2023-02-24T03:10:00;15.80;;;9.50;;
67500;SDS011;54349;52.528;19.760;2023-02-24T03:12:38;16.80;;;9.90;;
67500;SDS011;54349;52.528;19.760;2023-02-24T03:15:09;17.40;;;10.10;;
67500;SDS011;54349;52.528;19.760;2023-02-24T03:17:42;17.00;;;10.50;;
67500;SDS011;54349;52.528;19.760;2023-02-24T03:20:22;16.20;;;10.60;;
67500;SDS011;54349;52.528;19.760;2023-02-24T03:23:12;16.90;;;10.70;;
67500;SDS011;54349;52.528;19.760;2023-02-24T03:26:02;17.30;;;10.90;;
67500;SDS011;54349;52.528;19.760;2023-02-24T03:31:48;16.40;;;10.50;;
67500;SDS011;54349;52.528;19.760;2023-02-24T03:35:28;16.10;;;9.90;;
67500;SDS011;54349;52.528;19.760;2023-02-24T03:37:38;18.10;;;10.80;;
67500;SDS011;54349;52.528;19.760;2023-02-24T03:40:10;17.30;;;10.80;;
67500;SDS011;54349;52.528;19.760;2023-02-24T03:42:52;18.20;;;10.90;;
67500;SDS011;54349;52.528;19.760;2023-02-24T03:45:37;16.90;;;10.50;;
67500;SDS011;54349;52.528;19.760;2023-02-24T03:48:07;16.90;;;10.20;;
67500;SDS011;54349;52.528;19.760;2023-02-24T03:50:40;17.10;;;10.30;;
67500;SDS011;54349;52.528;19.760;2023-02-24T03:53:30;15.60;;;10.20;;
67500;SDS011;54349;52.528;19.760;2023-02-24T04:02:17;18.00;;;11.30;;
67500;SDS011;54349;52.528;19.760;2023-02-24T04:05:10;18.90;;;11.50;;
67500;SDS011;54349;52.528;19.760;2023-02-24T04:08:06;18.10;;;11.60;;
67500;SDS011;54349;52.528;19.760;2023-02-24T04:13:53;21.90;;;11.50;;
67500;SDS011;54349;52.528;19.760;2023-02-24T04:16:38;19.70;;;12.40;;
67500;SDS011;54349;52.528;19.760;2023-02-24T04:19:16;19.60;;;11.60;;
67500;SDS011;54349;52.528;19.760;2023-02-24T04:21:48;18.70;;;11.40;;
67500;SDS011;54349;52.528;19.760;2023-02-24T04:24:26;18.50;;;11.50;;
67500;SDS011;54349;52.528;19.760;2023-02-24T04:29:33;19.20;;;12.00;;
67500;SDS011;54349;52.528;19.760;2023-02-24T04:32:08;19.00;;;11.30;;
67500;SDS011;54349;52.528;19.760;2023-02-24T04:34:39;18.90;;;11.50;;
67500;SDS011;54349;52.528;19.760;2023-02-24T04:37:08;19.40;;;12.40;;
67500;SDS011;54349;52.528;19.760;2023-02-24T04:39:36;19.30;;;11.70;;
67500;SDS011;54349;52.528;19.760;2023-02-24T04:42:09;18.80;;;10.80;;
67500;SDS011;54349;52.528;19.760;2023-02-24T04:44:37;17.90;;;11.40;;
67500;SDS011;54349;52.528;19.760;2023-02-24T04:47:05;18.60;;;11.00;;
67500;SDS011;54349;52.528;19.760;2023-02-24T04:49:34;18.10;;;11.60;;
67500;SDS011;54349;52.528;19.760;2023-02-24T04:52:02;19.30;;;11.40;;
67500;SDS011;54349;52.528;19.760;2023-02-24T04:54:30;17.30;;;11.30;;
67500;SDS011;54349;52.528;19.760;2023-02-24T04:57:00;19.00;;;11.40;;
67500;SDS011;54349;52.528;19.760;2023-02-24T04:59:28;18.50;;;12.00;;
67500;SDS011;54349;52.528;19.760;2023-02-24T05:01:57;17.00;;;10.40;;
67500;SDS011;54349;52.528;19.760;2023-02-24T05:04:28;18.10;;;11.60;;
67500;SDS011;54349;52.528;19.760;2023-02-24T05:07:03;17.80;;;10.80;;
67500;SDS011;54349;52.528;19.760;2023-02-24T05:09:31;16.70;;;11.50;;
67500;SDS011;54349;52.528;19.760;2023-02-24T05:11:59;17.40;;;11.30;;
67500;SDS011;54349;52.528;19.760;2023-02-24T05:14:27;17.10;;;11.00;;
67500;SDS011;54349;52.528;19.760;2023-02-24T05:16:55;18.70;;;11.00;;
67500;SDS011;54349;52.528;19.760;2023-02-24T05:19:27;18.40;;;11.60;;
67500;SDS011;54349;52.528;19.760;2023-02-24T05:22:14;17.20;;;10.70;;
67500;SDS011;54349;52.528;19.760;2023-02-24T05:24:44;18.80;;;11.80;;
67500;SDS011;54349;52.528;19.760;2023-02-24T05:27:14;16.70;;;10.90;;
67500;SDS011;54349;52.528;19.760;2023-02-24T05:29:44;17.90;;;11.60;;
67500;SDS011;54349;52.528;19.760;2023-02-24T05:32:12;17.90;;;11.00;;
67500;SDS011;54349;52.528;19.760;2023-02-24T05:34:43;16.40;;;11.10;;
67500;SDS011;54349;52.528;19.760;2023-02-24T05:37:11;19.10;;;11.10;;
67500;SDS011;54349;52.528;19.760;2023-02-24T05:39:43;17.60;;;11.50;;
67500;SDS011;54349;52.528;19.760;2023-02-24T05:42:11;17.00;;;10.70;;
67500;SDS011;54349;52.528;19.760;2023-02-24T05:44:39;17.50;;;11.10;;
67500;SDS011;54349;52.528;19.760;2023-02-24T05:47:07;16.50;;;10.60;;
67500;SDS011;54349;52.528;19.760;2023-02-24T05:49:37;16.10;;;10.70;;
67500;SDS011;54349;52.528;19.760;2023-02-24T05:52:07;15.80;;;10.10;;
67500;SDS011;54349;52.528;19.760;2023-02-24T05:54:42;17.60;;;10.90;;
67500;SDS011;54349;52.528;19.760;2023-02-24T05:59:44;16.00;;;10.30;;
67500;SDS011;54349;52.528;19.760;2023-02-24T06:02:14;16.00;;;10.10;;
67500;SDS011;54349;52.528;19.760;2023-02-24T06:04:44;16.60;;;10.20;;
67500;SDS011;54349;52.528;19.760;2023-02-24T06:07:25;17.10;;;10.70;;
67500;SDS011;54349;52.528;19.760;2023-02-24T06:09:57;17.40;;;10.30;;
67500;SDS011;54349;52.528;19.760;2023-02-24T06:12:28;16.20;;;10.80;;
67500;SDS011;54349;52.528;19.760;2023-02-24T06:15:00;15.90;;;10.50;;
67500;SDS011;54349;52.528;19.760;2023-02-24T06:17:34;16.80;;;10.40;;
67500;SDS011;54349;52.528;19.760;2023-02-24T06:20:04;15.20;;;10.00;;
67500;SDS011;54349;52.528;19.760;2023-02-24T06:22:42;16.70;;;10.40;;
67500;SDS011;54349;52.528;19.760;2023-02-24T06:25:11;15.20;;;10.20;;
67500;SDS011;54349;52.528;19.760;2023-02-24T06:27:39;17.70;;;9.70;;
67500;SDS011;54349;52.528;19.760;2023-02-24T06:30:07;14.60;;;9.80;;
67500;SDS011;54349;52.528;19.760;2023-02-24T06:32:37;17.40;;;10.40;;
67500;SDS011;54349;52.528;19.760;2023-02-24T06:35:06;17.10;;;10.00;;
67500;SDS011;54349;52.528;19.760;2023-02-24T06:37:35;15.90;;;9.90;;
67500;SDS011;54349;52.528;19.760;2023-02-24T06:40:05;15.80;;;9.90;;
67500;SDS011;54349;52.528;19.760;2023-02-24T06:42:47;15.40;;;9.20;;
67500;SDS011;54349;52.528;19.760;2023-02-24T06:45:21;16.30;;;9.60;;
67500;SDS011;54349;52.528;19.760;2023-02-24T06:47:51;15.10;;;8.70;;
67500;SDS011;54349;52.528;19.760;2023-02-24T06:50:19;13.20;;;8.50;;
67500;SDS011;54349;52.528;19.760;2023-02-24T06:52:49;15.10;;;9.30;;
67500;SDS011;54349;52.528;19.760;2023-02-24T06:55:17;13.60;;;9.50;;
67500;SDS011;54349;52.528;19.760;2023-02-24T06:57:58;17.10;;;9.80;;
67500;SDS011;54349;52.528;19.760;2023-02-24T07:03:15;12.60;;;8.30;;
67500;SDS011;54349;52.528;19.760;2023-02-24T07:05:46;13.30;;;8.90;;
67500;SDS011;54349;52.528;19.760;2023-02-24T07:08:23;14.70;;;9.20;;
67500;SDS011;54349;52.528;19.760;2023-02-24T07:10:55;14.40;;;8.90;;
67500;SDS011;54349;52.528;19.760;2023-02-24T07:13:26;14.30;;;8.90;;
67500;SDS011;54349;52.528;19.760;2023-02-24T07:16:01;12.80;;;8.80;;
67500;SDS011;54349;52.528;19.760;2023-02-24T07:18:35;12.80;;;8.60;;
67500;SDS011;54349;52.528;19.760;2023-02-24T07:21:09;14.40;;;8.50;;
67500;SDS011;54349;52.528;19.760;2023-02-24T07:23:40;13.90;;;8.40;;
67500;SDS011;54349;52.528;19.760;2023-02-24T07:26:12;12.00;;;7.90;;
67500;SDS011;54349;52.528;19.760;2023-02-24T07:28:43;12.70;;;7.90;;
67500;SDS011;54349;52.528;19.760;2023-02-24T07:31:15;12.00;;;7.90;;
67500;SDS011;54349;52.528;19.760;2023-02-24T07:33:45;12.30;;;8.00;;
67500;SDS011;54349;52.528;19.760;2023-02-24T07:36:17;11.20;;;7.50;;
67500;SDS011;54349;52.528;19.760;2023-02-24T07:38:52;14.20;;;8.20;;
67500;SDS011;54349;52.528;19.760;2023-02-24T07:41:23;12.00;;;7.70;;
67500;SDS011;54349;52.528;19.760;2023-02-24T07:43:54;12.80;;;7.90;;
67500;SDS011;54349;52.528;19.760;2023-02-24T07:46:26;11.20;;;7.70;;
67500;SDS011;54349;52.528;19.760;2023-02-24T07:48:56;12.40;;;7.60;;
67500;SDS011;54349;52.528;19.760;2023-02-24T07:51:27;11.70;;;7.30;;
67500;SDS011;54349;52.528;19.760;2023-02-24T07:53:58;11.70;;;7.30;;
67500;SDS011;54349;52.528;19.760;2023-02-24T07:56:28;12.30;;;7.80;;
67500;SDS011;54349;52.528;19.760;2023-02-24T07:59:03;13.20;;;7.70;;
67500;SDS011;54349;52.528;19.760;2023-02-24T08:01:37;11.20;;;7.50;;
67500;SDS011;54349;52.528;19.760;2023-02-24T08:04:07;11.70;;;7.60;;
67500;SDS011;54349;52.528;19.760;2023-02-24T08:06:41;12.30;;;7.80;;
67500;SDS011;54349;52.528;19.760;2023-02-24T08:09:19;11.90;;;8.20;;
67500;SDS011;54349;52.528;19.760;2023-02-24T08:11:53;11.00;;;7.30;;
67500;SDS011;54349;52.528;19.760;2023-02-24T08:14:24;11.30;;;7.30;;
67500;SDS011;54349;52.528;19.760;2023-02-24T08:16:55;12.00;;;7.00;;
67500;SDS011;54349;52.528;19.760;2023-02-24T08:19:29;11.40;;;6.80;;
67500;SDS011;54349;52.528;19.760;2023-02-24T08:22:17;10.10;;;6.70;;
67500;SDS011;54349;52.528;19.760;2023-02-24T08:24:57;10.90;;;6.60;;
67500;SDS011;54349;52.528;19.760;2023-02-24T08:27:29;10.80;;;6.90;;
67500;SDS011;54349;52.528;19.760;2023-02-24T08:29:59;10.90;;;6.80;;
67500;SDS011;54349;52.528;19.760;2023-02-24T08:32:40;9.30;;;6.40;;
67500;SDS011;54349;52.528;19.760;2023-02-24T08:35:19;9.50;;;5.90;;
67500;SDS011;54349;52.528;19.760;2023-02-24T08:37:53;10.30;;;6.50;;
67500;SDS011;54349;52.528;19.760;2023-02-24T08:40:28;11.70;;;6.90;;
67500;SDS011;54349;52.528;19.760;2023-02-24T08:43:08;11.10;;;6.60;;
67500;SDS011;54349;52.528;19.760;2023-02-24T08:45:48;11.10;;;6.50;;
67500;SDS011;54349;52.528;19.760;2023-02-24T08:48:20;9.90;;;6.60;;
67500;SDS011;54349;52.528;19.760;2023-02-24T08:53:37;11.60;;;6.70;;
67500;SDS011;54349;52.528;19.760;2023-02-24T08:56:10;10.50;;;6.40;;
67500;SDS011;54349;52.528;19.760;2023-02-24T08:58:44;10.20;;;6.50;;
67500;SDS011;54349;52.528;19.760;2023-02-24T09:01:20;10.80;;;7.10;;
67500;SDS011;54349;52.528;19.760;2023-02-24T09:03:57;12.20;;;6.80;;
67500;SDS011;54349;52.528;19.760;2023-02-24T09:06:50;10.20;;;6.20;;
67500;SDS011;54349;52.528;19.760;2023-02-24T09:09:38;9.50;;;5.80;;
67500;SDS011;54349;52.528;19.760;2023-02-24T09:12:10;10.40;;;6.10;;
67500;SDS011;54349;52.528;19.760;2023-02-24T09:15:02;9.60;;;6.10;;
67500;SDS011;54349;52.528;19.760;2023-02-24T09:17:34;10.80;;;6.40;;
67500;SDS011;54349;52.528;19.760;2023-02-24T09:20:15;10.10;;;6.20;;
67500;SDS011;54349;52.528;19.760;2023-02-24T09:22:57;10.10;;;6.10;;
67500;SDS011;54349;52.528;19.760;2023-02-24T09:25:37;9.40;;;5.70;;
67500;SDS011;54349;52.528;19.760;2023-02-24T09:28:14;10.60;;;5.90;;
67500;SDS011;54349;52.528;19.760;2023-02-24T09:30:47;9.60;;;5.40;;
67500;SDS011;54349;52.528;19.760;2023-02-24T09:33:20;8.90;;;5.20;;
67500;SDS011;54349;52.528;19.760;2023-02-24T09:35:52;7.90;;;5.40;;
67500;SDS011;54349;52.528;19.760;2023-02-24T09:38:40;7.70;;;4.90;;
67500;SDS011;54349;52.528;19.760;2023-02-24T09:44:35;8.30;;;5.10;;
67500;SDS011;54349;52.528;19.760;2023-02-24T09:47:13;8.10;;;5.10;;
67500;SDS011;54349;52.528;19.760;2023-02-24T09:53:14;7.20;;;5.00;;
67500;SDS011;54349;52.528;19.760;2023-02-24T09:56:05;7.50;;;5.10;;
67500;SDS011;54349;52.528;19.760;2023-02-24T10:01:30;7.40;;;4.90;;
67500;SDS011;54349;52.528;19.760;2023-02-24T10:06:51;8.50;;;5.20;;
67500;SDS011;54349;52.528;19.760;2023-02-24T10:12:31;9.40;;;4.80;;
67500;SDS011;54349;52.528;19.760;2023-02-24T10:15:13;8.00;;;4.80;;
67500;SDS011;54349;52.528;19.760;2023-02-24T10:17:53;7.20;;;4.80;;
67500;SDS011;54349;52.528;19.760;2023-02-24T10:20:25;7.90;;;5.00;;
67500;SDS011;54349;52.528;19.760;2023-02-24T10:26:57;6.90;;;4.50;;
67500;SDS011;54349;52.528;19.760;2023-02-24T10:30:04;7.30;;;4.50;;
67500;SDS011;54349;52.528;19.760;2023-02-24T10:32:43;8.80;;;4.60;;
67500;SDS011;54349;52.528;19.760;2023-02-24T10:35:21;7.30;;;4.60;;
67500;SDS011;54349;52.528;19.760;2023-02-24T10:37:53;7.20;;;4.60;;
67500;SDS011;54349;52.528;19.760;2023-02-24T10:40:27;7.60;;;4.70;;
67500;SDS011;54349;52.528;19.760;2023-02-24T10:43:20;7.30;;;4.50;;
67500;SDS011;54349;52.528;19.760;2023-02-24T10:45:59;7.70;;;4.30;;
67500;SDS011;54349;52.528;19.760;2023-02-24T10:48:56;7.20;;;4.70;;
67500;SDS011;54349;52.528;19.760;2023-02-24T10:51:38;6.90;;;4.30;;
67500;SDS011;54349;52.528;19.760;2023-02-24T10:54:18;7.80;;;4.60;;
67500;SDS011;54349;52.528;19.760;2023-02-24T10:57:13;7.90;;;4.60;;
67500;SDS011;54349;52.528;19.760;2023-02-24T10:59:57;7.00;;;4.80;;
67500;SDS011;54349;52.528;19.760;2023-02-24T11:02:48;7.60;;;4.40;;
67500;SDS011;54349;52.528;19.760;2023-02-24T11:05:45;7.90;;;4.90;;
67500;SDS011;54349;52.528;19.760;2023-02-24T11:08:35;7.10;;;4.30;;
67500;SDS011;54349;52.528;19.760;2023-02-24T11:11:19;6.70;;;4.40;;
67500;SDS011;54349;52.528;19.760;2023-02-24T11:13:54;6.90;;;4.30;;
67500;SDS011;54349;52.528;19.760;2023-02-24T11:19:53;6.30;;;4.10;;
67500;SDS011;54349;52.528;19.760;2023-02-24T11:22:34;6.90;;;4.30;;
67500;SDS011;54349;52.528;19.760;2023-02-24T11:25:18;7.10;;;4.40;;
67500;SDS011;54349;52.528;19.760;2023-02-24T11:28:02;7.60;;;4.50;;
67500;SDS011;54349;52.528;19.760;2023-02-24T11:30:47;7.10;;;4.70;;
67500;SDS011;54349;52.528;19.760;2023-02-24T11:36:39;7.80;;;4.40;;
67500;SDS011;54349;52.528;19.760;2023-02-24T11:42:28;6.70;;;3.90;;
67500;SDS011;54349;52.528;19.760;2023-02-24T11:47:58;6.70;;;4.00;;
67500;SDS011;54349;52.528;19.760;2023-02-24T11:55:53;7.30;;;3.90;;
67500;SDS011;54349;52.528;19.760;2023-02-24T12:01:41;6.40;;;4.20;;
67500;SDS011;54349;52.528;19.760;2023-02-24T12:07:28;6.90;;;3.80;;
67500;SDS011;54349;52.528;19.760;2023-02-24T12:15:41;7.10;;;3.60;;
67500;SDS011;54349;52.528;19.760;2023-02-24T12:18:29;7.20;;;3.80;;
67500;SDS011;54349;52.528;19.760;2023-02-24T12:21:25;5.60;;;3.30;;
67500;SDS011;54349;52.528;19.760;2023-02-24T12:23:58;6.90;;;3.80;;
67500;SDS011;54349;52.528;19.760;2023-02-24T12:35:42;6.40;;;3.20;;
67500;SDS011;54349;52.528;19.760;2023-02-24T12:38:35;5.40;;;3.20;;
67500;SDS011;54349;52.528;19.760;2023-02-24T12:47:02;5.00;;;3.20;;
67500;SDS011;54349;52.528;19.760;2023-02-24T12:58:22;4.70;;;2.80;;
67500;SDS011;54349;52.528;19.760;2023-02-24T13:13:39;5.10;;;3.10;;
67500;SDS011;54349;52.528;19.760;2023-02-24T13:15:54;4.90;;;2.60;;
67500;SDS011;54349;52.528;19.760;2023-02-24T13:18:28;5.60;;;2.80;;
67500;SDS011;54349;52.528;19.760;2023-02-24T13:21:02;5.20;;;2.90;;
67500;SDS011;54349;52.528;19.760;2023-02-24T13:23:33;5.20;;;3.00;;
67500;SDS011;54349;52.528;19.760;2023-02-24T13:26:05;5.00;;;3.00;;
67500;SDS011;54349;52.528;19.760;2023-02-24T13:28:34;5.50;;;3.00;;
67500;SDS011;54349;52.528;19.760;2023-02-24T13:31:08;5.00;;;2.90;;
67500;SDS011;54349;52.528;19.760;2023-02-24T13:33:41;5.20;;;3.00;;
67500;SDS011;54349;52.528;19.760;2023-02-24T13:36:22;5.00;;;2.90;;
67500;SDS011;54349;52.528;19.760;2023-02-24T13:39:06;6.20;;;3.20;;
67500;SDS011;54349;52.528;19.760;2023-02-24T13:41:48;5.00;;;3.00;;
67500;SDS011;54349;52.528;19.760;2023-02-24T13:44:26;5.20;;;3.00;;
67500;SDS011;54349;52.528;19.760;2023-02-24T13:58:32;4.30;;;2.80;;
67500;SDS011;54349;52.528;19.760;2023-02-24T14:01:18;5.30;;;2.90;;
67500;SDS011;54349;52.528;19.760;2023-02-24T14:04:16;5.10;;;2.80;;
67500;SDS011;54349;52.528;19.760;2023-02-24T14:06:52;4.90;;;2.60;;
67500;SDS011;54349;52.528;19.760;2023-02-24T14:09:36;4.90;;;2.80;;
67500;SDS011;54349;52.528;19.760;2023-02-24T14:12:15;4.70;;;2.50;;
67500;SDS011;54349;52.528;19.760;2023-02-24T14:14:51;5.70;;;2.70;;
67500;SDS011;54349;52.528;19.760;2023-02-24T14:20:19;5.10;;;2.90;;
67500;SDS011;54349;52.528;19.760;2023-02-24T14:22:55;6.10;;;3.00;;
67500;SDS011;54349;52.528;19.760;2023-02-24T14:25:29;4.30;;;2.50;;
67500;SDS011;54349;52.528;19.760;2023-02-24T14:28:02;5.70;;;2.80;;
67500;SDS011;54349;52.528;19.760;2023-02-24T14:30:38;5.30;;;2.70;;
67500;SDS011;54349;52.528;19.760;2023-02-24T14:33:25;5.40;;;2.60;;
67500;SDS011;54349;52.528;19.760;2023-02-24T14:35:56;6.00;;;2.80;;
67500;SDS011;54349;52.528;19.760;2023-02-24T14:38:32;4.90;;;2.80;;
67500;SDS011;54349;52.528;19.760;2023-02-24T14:41:23;5.70;;;2.80;;
67500;SDS011;54349;52.528;19.760;2023-02-24T14:43:52;5.30;;;2.60;;
67500;SDS011;54349;52.528;19.760;2023-02-24T14:46:22;5.10;;;2.70;;
67500;SDS011;54349;52.528;19.760;2023-02-24T14:48:53;6.50;;;2.90;;
67500;SDS011;54349;52.528;19.760;2023-02-24T14:51:33;5.70;;;2.70;;
67500;SDS011;54349;52.528;19.760;2023-02-24T14:54:07;5.60;;;2.60;;
67500;SDS011;54349;52.528;19.760;2023-02-24T14:56:40;5.40;;;2.70;;
67500;SDS011;54349;52.528;19.760;2023-02-24T14:59:33;5.90;;;2.70;;
67500;SDS011;54349;52.528;19.760;2023-02-24T15:02:13;6.30;;;2.60;;
67500;SDS011;54349;52.528;19.760;2023-02-24T15:04:47;5.40;;;2.60;;
67500;SDS011;54349;52.528;19.760;2023-02-24T15:07:30;5.80;;;2.70;;
67500;SDS011;54349;52.528;19.760;2023-02-24T15:10:02;5.50;;;2.40;;
67500;SDS011;54349;52.528;19.760;2023-02-24T15:12:43;5.70;;;2.70;;
67500;SDS011;54349;52.528;19.760;2023-02-24T15:15:21;6.90;;;2.60;;
67500;SDS011;54349;52.528;19.760;2023-02-24T15:17:56;4.20;;;2.30;;
67500;SDS011;54349;52.528;19.760;2023-02-24T15:20:33;5.20;;;2.50;;
67500;SDS011;54349;52.528;19.760;2023-02-24T15:23:04;6.90;;;2.80;;
67500;SDS011;54349;52.528;19.760;2023-02-24T15:25:44;6.50;;;2.50;;
67500;SDS011;54349;52.528;19.760;2023-02-24T15:28:28;5.60;;;2.70;;
67500;SDS011;54349;52.528;19.760;2023-02-24T15:31:17;5.60;;;2.60;;
67500;SDS011;54349;52.528;19.760;2023-02-24T15:33:57;5.80;;;2.50;;
67500;SDS011;54349;52.528;19.760;2023-02-24T15:36:31;5.70;;;2.70;;
67500;SDS011;54349;52.528;19.760;2023-02-24T15:39:04;7.40;;;2.80;;
67500;SDS011;54349;52.528;19.760;2023-02-24T15:41:41;5.40;;;2.60;;
67500;SDS011;54349;52.528;19.760;2023-02-24T15:44:32;5.50;;;2.60;;
67500;SDS011;54349;52.528;19.760;2023-02-24T15:47:24;6.00;;;2.50;;
67500;SDS011;54349;52.528;19.760;2023-02-24T15:49:54;4.60;;;2.40;;
67500;SDS011;54349;52.528;19.760;2023-02-24T15:52:26;6.20;;;2.50;;
67500;SDS011;54349;52.528;19.760;2023-02-24T15:54:56;4.80;;;2.50;;
67500;SDS011;54349;52.528;19.760;2023-02-24T15:57:27;5.60;;;2.60;;
67500;SDS011;54349;52.528;19.760;2023-02-24T15:59:58;6.20;;;2.60;;
67500;SDS011;54349;52.528;19.760;2023-02-24T16:02:27;5.00;;;2.50;;
67500;SDS011;54349;52.528;19.760;2023-02-24T16:04:56;4.90;;;2.40;;
67500;SDS011;54349;52.528;19.760;2023-02-24T16:07:28;6.10;;;2.90;;
67500;SDS011;54349;52.528;19.760;2023-02-24T16:10:03;5.40;;;2.50;;
67500;SDS011;54349;52.528;19.760;2023-02-24T16:12:36;5.40;;;2.50;;
67500;SDS011;54349;52.528;19.760;2023-02-24T16:15:18;6.80;;;2.80;;
67500;SDS011;54349;52.528;19.760;2023-02-24T16:17:50;6.10;;;2.80;;
67500;SDS011;54349;52.528;19.760;2023-02-24T16:20:22;6.60;;;2.80;;
67500;SDS011;54349;52.528;19.760;2023-02-24T16:23:00;5.10;;;2.40;;
67500;SDS011;54349;52.528;19.760;2023-02-24T16:25:39;6.10;;;2.70;;
67500;SDS011;54349;52.528;19.760;2023-02-24T16:28:14;5.60;;;2.80;;
67500;SDS011;54349;52.528;19.760;2023-02-24T16:30:44;6.80;;;3.10;;
67500;SDS011;54349;52.528;19.760;2023-02-24T16:33:14;5.50;;;2.60;;
67500;SDS011;54349;52.528;19.760;2023-02-24T16:35:44;7.90;;;3.10;;
67500;SDS011;54349;52.528;19.760;2023-02-24T16:38:14;5.60;;;2.60;;
67500;SDS011;54349;52.528;19.760;2023-02-24T16:40:45;7.10;;;2.60;;
67500;SDS011;54349;52.528;19.760;2023-02-24T16:43:15;5.30;;;2.60;;
67500;SDS011;54349;52.528;19.760;2023-02-24T16:45:44;6.60;;;2.90;;
67500;SDS011;54349;52.528;19.760;2023-02-24T16:48:20;6.10;;;2.60;;
67500;SDS011;54349;52.528;19.760;2023-02-24T16:50:51;4.50;;;2.30;;
67500;SDS011;54349;52.528;19.760;2023-02-24T16:53:22;5.90;;;2.70;;
67500;SDS011;54349;52.528;19.760;2023-02-24T16:55:51;5.40;;;2.70;;
67500;SDS011;54349;52.528;19.760;2023-02-24T16:58:19;7.60;;;3.00;;
67500;SDS011;54349;52.528;19.760;2023-02-24T17:00:49;4.90;;;2.60;;
67500;SDS011;54349;52.528;19.760;2023-02-24T17:03:23;5.40;;;2.60;;
67500;SDS011;54349;52.528;19.760;2023-02-24T17:06:04;4.70;;;2.50;;
67500;SDS011;54349;52.528;19.760;2023-02-24T17:08:33;5.30;;;2.70;;
67500;SDS011;54349;52.528;19.760;2023-02-24T17:11:02;7.90;;;3.20;;
67500;SDS011;54349;52.528;19.760;2023-02-24T17:13:30;6.10;;;2.90;;
67500;SDS011;54349;52.528;19.760;2023-02-24T17:15:58;6.40;;;3.40;;
67500;SDS011;54349;52.528;19.760;2023-02-24T17:18:26;7.20;;;3.10;;
67500;SDS011;54349;52.528;19.760;2023-02-24T17:20:54;7.20;;;3.60;;
67500;SDS011;54349;52.528;19.760;2023-02-24T17:23:23;6.80;;;3.70;;
67500;SDS011;54349;52.528;19.760;2023-02-24T17:25:53;7.40;;;3.80;;
67500;SDS011;54349;52.528;19.760;2023-02-24T17:28:23;7.80;;;4.20;;
67500;SDS011;54349;52.528;19.760;2023-02-24T17:30:51;7.80;;;4.10;;
67500;SDS011;54349;52.528;19.760;2023-02-24T17:33:20;9.10;;;4.10;;
67500;SDS011;54349;52.528;19.760;2023-02-24T17:35:47;7.90;;;3.80;;